createdAt,value
2017-06-26T00:00:39.319Z,98.72
2017-06-26T00:01:50.304Z,99.01
2017-06-26T00:03:01.734Z,99.58
2017-06-26T00:04:12.718Z,99.01
2017-06-26T00:05:23.711Z,98.53
2017-06-26T00:06:34.704Z,98.53
2017-06-26T00:07:45.684Z,98.53
2017-06-26T00:08:56.716Z,98.53
2017-06-26T00:10:07.903Z,98.14
2017-06-26T00:11:18.892Z,97.86
2017-06-26T00:12:30.081Z,98.33
2017-06-26T00:13:41.084Z,98.62
2017-06-26T00:14:52.115Z,98.33
2017-06-26T00:16:03.100Z,99.39
2017-06-26T00:17:14.288Z,98.91
2017-06-26T00:18:25.301Z,98.33
2017-06-26T00:19:36.292Z,98.53
2017-06-26T00:20:47.479Z,98.43
2017-06-26T00:21:58.467Z,98.24
2017-06-26T00:23:09.858Z,98.53
2017-06-26T00:24:21.056Z,98.33
2017-06-26T00:25:32.092Z,99.1
2017-06-26T00:26:43.284Z,98.43
2017-06-26T00:27:54.309Z,99.01
2017-06-26T00:29:05.295Z,98.82
2017-06-26T00:30:16.289Z,98.53
2017-06-26T00:31:27.323Z,99.2
2017-06-26T00:32:38.311Z,99.39
2017-06-26T00:33:49.304Z,98.72
2017-06-26T00:35:00.291Z,99.39
2017-06-26T00:36:11.278Z,98.82
2017-06-26T00:37:22.309Z,98.33
2017-06-26T00:38:33.304Z,99.39
2017-06-26T00:39:44.287Z,98.91
2017-06-26T00:40:55.465Z,99.01
2017-06-26T00:42:06.649Z,98.43
2017-06-26T00:43:17.883Z,97.76
2017-06-26T00:44:28.876Z,98.33
2017-06-26T00:45:40.056Z,98.82
2017-06-26T00:46:51.071Z,98.53
2017-06-26T00:48:02.054Z,98.82
2017-06-26T00:49:13.096Z,98.82
2017-06-26T00:50:24.086Z,98.33
2017-06-26T00:51:35.072Z,99.2
2017-06-26T00:52:46.265Z,99.29
2017-06-26T00:53:57.253Z,99.39
2017-06-26T00:55:08.296Z,98.82
2017-06-26T00:56:19.482Z,99.01
2017-06-26T00:57:30.483Z,99.68
2017-06-26T00:58:41.469Z,99.1
2017-06-26T00:59:52.445Z,99.39
2017-06-26T01:01:03.478Z,99.01
2017-06-26T01:02:14.462Z,99.39
2017-06-26T01:03:25.449Z,99.87
2017-06-26T01:04:36.434Z,99.77
2017-06-26T01:05:47.418Z,99.99
2017-06-26T01:06:58.452Z,99.68
2017-06-26T01:08:09.438Z,99.68
2017-06-26T01:09:20.623Z,99.2
2017-06-26T01:10:31.609Z,98.62
2017-06-26T01:11:42.599Z,99.77
2017-06-26T01:12:53.634Z,99.2
2017-06-26T01:14:04.620Z,99.96
2017-06-26T01:15:15.601Z,99.68
2017-06-26T01:16:26.816Z,99.96
2017-06-26T01:17:37.803Z,99.96
2017-06-26T01:18:48.837Z,99.87
2017-06-26T01:19:59.839Z,99.58
2017-06-26T01:21:10.820Z,98.82
2017-06-26T01:22:22.013Z,99.99
2017-06-26T01:23:33.192Z,99.68
2017-06-26T01:24:44.429Z,99.99
2017-06-26T01:25:55.621Z,99.99
2017-06-26T01:27:06.605Z,99.99
2017-06-26T01:28:17.798Z,99.87
2017-06-26T01:29:28.784Z,99.15
2017-06-26T01:30:39.975Z,99.63
2017-06-26T01:31:50.959Z,99.49
2017-06-26T01:33:01.947Z,99.99
2017-06-26T01:34:12.932Z,99.73
2017-06-26T01:35:23.969Z,99.87
2017-06-26T01:36:34.991Z,99.77
2017-06-26T01:37:45.982Z,99.87
2017-06-26T01:38:56.964Z,99.77
2017-06-26T01:40:07.952Z,99.58
2017-06-26T01:41:18.989Z,99.99
2017-06-26T01:42:29.975Z,99.99
2017-06-26T01:43:40.964Z,99.99
2017-06-26T01:44:51.944Z,99.58
2017-06-26T01:46:02.925Z,99.15
2017-06-26T01:47:14.167Z,99.99
2017-06-26T01:48:25.148Z,99.68
2017-06-26T01:49:36.141Z,99.87
2017-06-26T01:50:47.327Z,99.53
2017-06-26T01:51:58.318Z,99.77
2017-06-26T01:53:09.351Z,99.99
2017-06-26T01:54:20.337Z,99.99
2017-06-26T01:55:31.327Z,99.87
2017-06-26T01:56:42.315Z,99.1
2017-06-26T01:57:53.510Z,99.39
2017-06-26T01:59:04.547Z,99.99
2017-06-26T02:00:15.537Z,99.99
2017-06-26T02:01:26.534Z,99.99
2017-06-26T02:02:37.514Z,99.99
2017-06-26T02:03:48.499Z,99.99
2017-06-26T02:04:59.724Z,99.99
2017-06-26T02:06:10.715Z,99.87
2017-06-26T02:07:21.901Z,99.68
2017-06-26T02:08:33.291Z,99.68
2017-06-26T02:09:44.275Z,99.87
2017-06-26T02:10:55.254Z,99.99
2017-06-26T02:12:06.241Z,99.58
2017-06-26T02:13:17.429Z,99.99
2017-06-26T02:14:28.417Z,99.87
2017-06-26T02:15:39.448Z,99.29
2017-06-26T02:16:50.429Z,99.99
2017-06-26T02:18:01.414Z,99.99
2017-06-26T02:19:12.399Z,99.82
2017-06-26T02:20:23.386Z,98.82
2017-06-26T02:21:34.423Z,99.87
2017-06-26T02:22:45.414Z,99.77
2017-06-26T02:23:56.394Z,99.99
2017-06-26T02:25:07.784Z,99.99
2017-06-26T02:26:18.967Z,99.87
2017-06-26T02:27:30.002Z,99.77
2017-06-26T02:28:41.183Z,99.29
2017-06-26T02:29:52.170Z,99.77
2017-06-26T02:31:03.356Z,99.87
2017-06-26T02:32:14.346Z,99.87
2017-06-26T02:33:25.388Z,99.77
2017-06-26T02:34:36.371Z,99.2
2017-06-26T02:35:47.359Z,99.77
2017-06-26T02:36:58.545Z,99.68
2017-06-26T02:38:09.729Z,99.68
2017-06-26T02:39:20.959Z,99.87
2017-06-26T02:40:31.949Z,99.39
2017-06-26T02:41:42.956Z,99.1
2017-06-26T02:42:53.942Z,99.29
2017-06-26T02:44:04.928Z,98.91
2017-06-26T02:45:15.962Z,99.01
2017-06-26T02:46:26.983Z,99.77
2017-06-26T02:47:37.974Z,99.99
2017-06-26T02:48:49.163Z,99.96
2017-06-26T02:50:00.151Z,99.87
2017-06-26T02:51:11.187Z,99.77
2017-06-26T02:52:22.180Z,98.91
2017-06-26T02:53:33.170Z,99.77
2017-06-26T02:54:44.158Z,99.96
2017-06-26T02:55:55.143Z,99.77
2017-06-26T02:57:06.383Z,99.99
2017-06-26T02:58:17.367Z,99.99
2017-06-26T02:59:28.355Z,99.99
2017-06-26T03:00:39.546Z,99.99
2017-06-26T03:01:50.739Z,99.99
2017-06-26T03:03:02.175Z,99.99
2017-06-26T03:04:13.156Z,99.99
2017-06-26T03:05:24.342Z,99.99
2017-06-26T03:06:35.325Z,99.99
2017-06-26T03:07:46.316Z,99.99
2017-06-26T03:08:57.344Z,99.99
2017-06-26T03:10:08.339Z,99.99
2017-06-26T03:11:19.314Z,99.99
2017-06-26T03:12:30.302Z,99.99
2017-06-26T03:13:41.286Z,99.99
2017-06-26T03:14:52.317Z,99.99
2017-06-26T03:16:03.307Z,99.99
2017-06-26T03:17:14.295Z,99.99
2017-06-26T03:18:25.291Z,99.99
2017-06-26T03:19:36.273Z,99.99
2017-06-26T03:20:47.457Z,99.99
2017-06-26T03:21:58.651Z,99.99
2017-06-26T03:23:09.634Z,99.99
2017-06-26T03:24:20.628Z,99.99
2017-06-26T03:25:31.668Z,99.99
2017-06-26T03:26:42.655Z,99.99
2017-06-26T03:27:53.640Z,99.99
2017-06-26T03:29:04.627Z,99.99
2017-06-26T03:30:15.626Z,99.99
2017-06-26T03:31:26.862Z,99.99
2017-06-26T03:32:37.849Z,99.99
2017-06-26T03:33:48.838Z,99.99
2017-06-26T03:34:59.823Z,99.99
2017-06-26T03:36:11.020Z,99.99
2017-06-26T03:37:22.043Z,99.99
2017-06-26T03:38:33.226Z,99.99
2017-06-26T03:39:44.218Z,99.99
2017-06-26T03:40:55.199Z,99.99
2017-06-26T03:42:06.181Z,99.99
2017-06-26T03:43:17.214Z,99.99
2017-06-26T03:44:28.197Z,99.99
2017-06-26T03:45:39.384Z,99.99
2017-06-26T03:46:50.772Z,99.99
2017-06-26T03:48:01.763Z,99.99
2017-06-26T03:49:12.798Z,99.99
2017-06-26T03:50:23.782Z,99.99
2017-06-26T03:51:34.777Z,99.99
2017-06-26T03:52:45.763Z,99.99
2017-06-26T03:53:56.953Z,99.99
2017-06-26T03:55:08.001Z,99.99
2017-06-26T03:56:19.190Z,99.99
2017-06-26T03:57:30.173Z,99.99
2017-06-26T03:58:41.154Z,99.99
2017-06-26T03:59:52.133Z,99.99
2017-06-26T04:01:03.171Z,99.99
2017-06-26T04:02:14.147Z,99.99
2017-06-26T04:03:25.340Z,99.99
2017-06-26T04:04:36.321Z,99.99
2017-06-26T04:05:47.308Z,99.99
2017-06-26T04:06:58.544Z,99.99
2017-06-26T04:08:09.530Z,99.99
2017-06-26T04:09:20.502Z,99.99
2017-06-26T04:10:31.502Z,99.99
2017-06-26T04:11:42.500Z,99.99
2017-06-26T04:12:53.740Z,99.99
2017-06-26T04:14:05.130Z,99.99
2017-06-26T04:15:16.110Z,99.99
2017-06-26T04:16:27.092Z,99.99
2017-06-26T04:17:38.078Z,99.99
2017-06-26T04:18:49.114Z,99.99
2017-06-26T04:20:00.102Z,99.99
2017-06-26T04:21:11.287Z,99.99
2017-06-26T04:22:22.680Z,99.99
2017-06-26T04:23:33.661Z,99.99
2017-06-26T04:24:44.700Z,99.99
2017-06-26T04:25:55.680Z,99.99
2017-06-26T04:27:06.668Z,99.99
2017-06-26T04:28:17.653Z,99.99
2017-06-26T04:29:28.635Z,99.99
2017-06-26T04:30:39.669Z,99.99
2017-06-26T04:31:50.653Z,99.99
2017-06-26T04:33:01.635Z,99.99
2017-06-26T04:34:12.612Z,99.99
2017-06-26T04:35:23.683Z,99.99
2017-06-26T04:36:34.664Z,99.99
2017-06-26T04:37:45.654Z,99.99
2017-06-26T04:38:56.646Z,99.99
2017-06-26T04:40:07.630Z,99.99
2017-06-26T04:41:18.665Z,99.99
2017-06-26T04:42:29.653Z,99.99
2017-06-26T04:43:40.637Z,99.99
2017-06-26T04:44:51.623Z,99.99
2017-06-26T04:46:02.611Z,99.99
2017-06-26T04:47:13.846Z,99.99
2017-06-26T04:48:24.838Z,99.99
2017-06-26T04:49:36.224Z,99.99
2017-06-26T04:50:47.218Z,99.99
2017-06-26T04:51:58.203Z,99.99
2017-06-26T04:53:09.449Z,99.99
2017-06-26T04:54:20.434Z,99.99
2017-06-26T04:55:31.417Z,99.99
2017-06-26T04:56:42.399Z,99.99
2017-06-26T04:57:53.392Z,99.99
2017-06-26T04:59:04.423Z,99.99
2017-06-26T05:00:15.416Z,99.99
2017-06-26T05:01:26.607Z,99.99
2017-06-26T05:02:37.800Z,99.99
2017-06-26T05:03:48.781Z,99.99
2017-06-26T05:04:59.826Z,99.99
2017-06-26T05:06:10.846Z,99.99
2017-06-26T05:07:22.232Z,99.99
2017-06-26T05:08:33.225Z,99.99
2017-06-26T05:09:44.219Z,99.99
2017-06-26T05:10:55.201Z,99.99
2017-06-26T05:12:06.188Z,99.99
2017-06-26T05:13:17.371Z,99.99
2017-06-26T05:14:28.362Z,99.99
2017-06-26T05:15:39.400Z,99.99
2017-06-26T05:16:50.586Z,99.99
2017-06-26T05:18:01.771Z,99.99
2017-06-26T05:19:12.754Z,99.99
2017-06-26T05:20:23.745Z,99.99
2017-06-26T05:21:34.782Z,99.99
2017-06-26T05:22:45.769Z,99.99
2017-06-26T05:23:56.956Z,99.99
2017-06-26T05:25:07.945Z,99.99
2017-06-26T05:26:18.938Z,99.99
2017-06-26T05:27:29.977Z,99.99
2017-06-26T05:28:40.964Z,99.99
2017-06-26T05:29:51.944Z,99.99
2017-06-26T05:31:02.930Z,99.99
2017-06-26T05:32:14.118Z,99.99
2017-06-26T05:33:25.157Z,99.99
2017-06-26T05:34:36.348Z,99.99
2017-06-26T05:35:47.339Z,99.99
2017-06-26T05:36:58.322Z,99.99
2017-06-26T05:38:09.308Z,99.99
2017-06-26T05:39:20.355Z,99.99
2017-06-26T05:40:31.362Z,99.99
2017-06-26T05:41:42.350Z,99.99
2017-06-26T05:42:53.365Z,99.99
2017-06-26T05:44:04.352Z,99.99
2017-06-26T05:45:15.392Z,99.99
2017-06-26T05:46:26.390Z,99.99
2017-06-26T05:47:37.369Z,99.99
2017-06-26T05:48:48.350Z,99.99
2017-06-26T05:49:59.334Z,99.99
2017-06-26T05:51:10.378Z,99.99
2017-06-26T05:52:21.570Z,99.99
2017-06-26T05:53:32.768Z,99.99
2017-06-26T05:54:43.966Z,99.99
2017-06-26T05:55:54.954Z,99.99
2017-06-26T05:57:05.994Z,99.99
2017-06-26T05:58:16.972Z,99.99
2017-06-26T05:59:27.961Z,99.99
2017-06-26T06:00:38.957Z,99.99
2017-06-26T06:01:49.949Z,99.99
2017-06-26T06:03:00.991Z,99.99
2017-06-26T06:04:11.976Z,99.99
2017-06-26T06:05:22.964Z,99.99
2017-06-26T06:06:33.948Z,99.99
2017-06-26T06:07:44.934Z,99.99
2017-06-26T06:08:55.973Z,99.99
2017-06-26T06:10:07.171Z,99.99
2017-06-26T06:11:18.353Z,99.99
2017-06-26T06:12:29.546Z,99.99
2017-06-26T06:13:40.763Z,99.99
2017-06-26T06:14:51.804Z,99.99
2017-06-26T06:16:02.798Z,99.99
2017-06-26T06:17:13.793Z,99.99
2017-06-26T06:18:24.984Z,99.99
2017-06-26T06:19:35.973Z,99.99
2017-06-26T06:20:47.371Z,99.99
2017-06-26T06:21:58.561Z,99.99
2017-06-26T06:23:09.554Z,99.99
2017-06-26T06:24:20.767Z,99.99
2017-06-26T06:25:31.811Z,99.99
2017-06-26T06:26:42.803Z,99.99
2017-06-26T06:27:53.795Z,99.99
2017-06-26T06:29:04.795Z,99.99
2017-06-26T06:30:15.787Z,99.99
2017-06-26T06:31:26.828Z,99.99
2017-06-26T06:32:37.820Z,99.99
2017-06-26T06:33:48.816Z,99.99
2017-06-26T06:34:59.820Z,99.99
2017-06-26T06:36:10.822Z,99.99
2017-06-26T06:37:21.857Z,99.99
2017-06-26T06:38:33.051Z,99.99
2017-06-26T06:39:44.033Z,99.99
2017-06-26T06:40:55.022Z,99.99
2017-06-26T06:42:06.008Z,99.99
2017-06-26T06:43:17.055Z,99.99
2017-06-26T06:44:28.053Z,99.99
2017-06-26T06:45:39.042Z,99.99
2017-06-26T06:46:50.032Z,99.99
2017-06-26T06:48:01.016Z,99.99
2017-06-26T06:49:12.051Z,99.99
2017-06-26T06:50:23.053Z,99.99
2017-06-26T06:51:34.039Z,99.99
2017-06-26T06:52:45.037Z,99.99
2017-06-26T06:53:56.022Z,99.99
2017-06-26T06:55:07.069Z,99.99
2017-06-26T06:56:18.050Z,99.99
2017-06-26T06:57:29.049Z,99.99
2017-06-26T06:58:40.042Z,99.99
2017-06-26T06:59:51.031Z,99.99
2017-06-26T07:01:02.081Z,99.99
2017-06-26T07:02:13.077Z,99.99
2017-06-26T07:03:24.274Z,99.99
2017-06-26T07:04:35.263Z,99.99
2017-06-26T07:05:46.253Z,99.99
2017-06-26T07:06:57.289Z,99.99
2017-06-26T07:08:08.287Z,99.99
2017-06-26T07:09:19.483Z,99.99
2017-06-26T07:10:30.483Z,99.99
2017-06-26T07:11:41.475Z,99.99
2017-06-26T07:12:52.719Z,99.99
2017-06-26T07:14:03.915Z,99.99
2017-06-26T07:15:14.905Z,99.78
2017-06-26T07:16:25.904Z,99.49
2017-06-26T07:17:36.901Z,98.63
2017-06-26T07:18:47.938Z,99.4
2017-06-26T07:19:58.929Z,99.99
2017-06-26T07:21:09.951Z,99.99
2017-06-26T07:22:20.938Z,99.99
2017-06-26T07:23:31.935Z,99.99
2017-06-26T07:24:43.019Z,99.99
2017-06-26T07:25:54.011Z,99.99
2017-06-26T07:27:04.998Z,99.99
2017-06-26T07:28:16.186Z,99.99
2017-06-26T07:29:27.574Z,99.11
2017-06-26T07:30:38.560Z,99.99
2017-06-26T07:31:49.562Z,99.99
2017-06-26T07:33:00.556Z,99.99
2017-06-26T07:34:11.545Z,99.99
2017-06-26T07:35:22.589Z,99.49
2017-06-26T07:36:33.588Z,98.19
2017-06-26T07:37:44.582Z,98.1
2017-06-26T07:38:55.775Z,98.58
2017-06-26T07:40:06.769Z,98.29
2017-06-26T07:41:17.815Z,99.16
2017-06-26T07:42:28.801Z,97.81
2017-06-26T07:43:39.794Z,95.79
2017-06-26T07:44:50.997Z,96.94
2017-06-26T07:46:01.983Z,97.04
2017-06-26T07:47:13.031Z,96.85
2017-06-26T07:48:24.222Z,96.27
2017-06-26T07:49:35.427Z,96.85
2017-06-26T07:50:46.421Z,96.85
2017-06-26T07:51:57.827Z,95.89
2017-06-26T07:53:08.866Z,96.85
2017-06-26T07:54:19.865Z,95.79
2017-06-26T07:55:30.857Z,95.31
2017-06-26T07:56:42.044Z,94.44
2017-06-26T07:57:53.055Z,94.82
2017-06-26T07:59:04.098Z,94.73
2017-06-26T08:00:15.091Z,94.25
2017-06-26T08:01:26.089Z,93.96
2017-06-26T08:02:37.282Z,93.96
2017-06-26T08:03:48.273Z,94.2
2017-06-26T08:04:59.312Z,93.66
2017-06-26T08:06:10.308Z,92.99
2017-06-26T08:07:21.300Z,91.98
2017-06-26T08:08:32.291Z,91.6
2017-06-26T08:09:43.288Z,92.02
2017-06-26T08:10:54.290Z,92.7
2017-06-26T08:12:05.296Z,91.16
2017-06-26T08:13:16.301Z,91.25
2017-06-26T08:14:27.502Z,91.74
2017-06-26T08:15:38.553Z,92.36
2017-06-26T08:16:49.555Z,92.22
2017-06-26T08:18:00.558Z,92.9
2017-06-26T08:19:11.546Z,92.32
2017-06-26T08:20:22.540Z,92.41
2017-06-26T08:21:33.600Z,92.51
2017-06-26T08:22:44.599Z,92.9
2017-06-26T08:23:55.593Z,92.56
2017-06-26T08:25:06.591Z,92.36
2017-06-26T08:26:17.596Z,91.69
2017-06-26T08:27:28.846Z,92.12
2017-06-26T08:28:39.846Z,91.35
2017-06-26T08:29:51.044Z,90.29
2017-06-26T08:31:02.048Z,90.38
2017-06-26T08:32:13.053Z,90.87
2017-06-26T08:33:24.102Z,90.14
2017-06-26T08:34:35.102Z,89.56
2017-06-26T08:35:46.105Z,89.47
2017-06-26T08:36:57.702Z,89.27
2017-06-26T08:38:08.699Z,88.64
2017-06-26T08:39:19.745Z,87.19
2017-06-26T08:40:30.739Z,86.94
2017-06-26T08:41:41.746Z,86.41
2017-06-26T08:42:52.744Z,85.05
2017-06-26T08:44:03.751Z,83.16
2017-06-26T08:45:14.802Z,82.58
2017-06-26T08:46:25.810Z,81.62
2017-06-26T08:47:36.810Z,81.56
2017-06-26T08:48:48.013Z,80.98
2017-06-26T08:49:59.036Z,81.56
2017-06-26T08:51:10.101Z,81.07
2017-06-26T08:52:21.109Z,80.59
2017-06-26T08:53:32.527Z,80.59
2017-06-26T08:54:43.534Z,82.48
2017-06-26T08:55:54.746Z,82.58
2017-06-26T08:57:05.803Z,84.03
2017-06-26T08:58:16.803Z,82.87
2017-06-26T08:59:27.843Z,83.64
2017-06-26T09:00:38.840Z,83.36
2017-06-26T09:01:49.868Z,81.17
2017-06-26T09:03:00.927Z,82.23
2017-06-26T09:04:11.931Z,83.15
2017-06-26T09:05:23.124Z,79.8
2017-06-26T09:06:34.128Z,79.32
2017-06-26T09:07:45.336Z,75.57
2017-06-26T09:08:56.592Z,77.7
2017-06-26T09:10:07.599Z,76.39
2017-06-26T09:11:18.601Z,77.06
2017-06-26T09:12:29.598Z,77.75
2017-06-26T09:13:40.602Z,76.97
2017-06-26T09:14:51.660Z,77.12
2017-06-26T09:16:02.673Z,76.51
2017-06-26T09:17:13.678Z,78.41
2017-06-26T09:18:24.673Z,79.95
2017-06-26T09:19:35.670Z,79.37
2017-06-26T09:20:46.872Z,78.31
2017-06-26T09:21:58.077Z,80.19
2017-06-26T09:23:09.090Z,78.74
2017-06-26T09:24:20.090Z,76.74
2017-06-26T09:25:31.154Z,77.32
2017-06-26T09:26:42.562Z,76.25
2017-06-26T09:27:53.571Z,75.38
2017-06-26T09:29:04.575Z,76.93
2017-06-26T09:30:15.576Z,75.48
2017-06-26T09:31:26.633Z,74.84
2017-06-26T09:32:37.639Z,72.41
2017-06-26T09:33:48.648Z,74.45
2017-06-26T09:34:59.694Z,73.58
2017-06-26T09:36:10.701Z,72.64
2017-06-26T09:37:21.957Z,73.03
2017-06-26T09:38:32.959Z,72.25
2017-06-26T09:39:43.970Z,71.44
2017-06-26T09:40:54.974Z,74.9
2017-06-26T09:42:05.974Z,75.38
2017-06-26T09:43:17.032Z,74.99
2017-06-26T09:44:28.033Z,72.61
2017-06-26T09:45:39.045Z,71.15
2017-06-26T09:46:50.044Z,72.61
2017-06-26T09:48:01.050Z,73.28
2017-06-26T09:49:12.308Z,72.06
2017-06-26T09:50:23.312Z,71.28
2017-06-26T09:51:34.320Z,68.86
2017-06-26T09:52:45.527Z,69.34
2017-06-26T09:53:56.533Z,73.52
2017-06-26T09:55:07.592Z,71.19
2017-06-26T09:56:18.592Z,68.21
2017-06-26T09:57:29.605Z,70.12
2017-06-26T09:58:40.612Z,68.99
2017-06-26T09:59:51.625Z,70.54
2017-06-26T10:01:02.677Z,69.57
2017-06-26T10:02:13.678Z,69.76
2017-06-26T10:03:24.681Z,71.12
2017-06-26T10:04:35.688Z,67.14
2017-06-26T10:05:47.102Z,67.83
2017-06-26T10:06:58.158Z,70.25
2017-06-26T10:08:09.167Z,70.67
2017-06-26T10:09:20.168Z,67.28
2017-06-26T10:10:31.183Z,68.05
2017-06-26T10:11:42.188Z,66.11
2017-06-26T10:12:53.237Z,69.02
2017-06-26T10:14:04.252Z,68.15
2017-06-26T10:15:15.252Z,67.5
2017-06-26T10:16:26.458Z,68.67
2017-06-26T10:17:37.667Z,68.87
2017-06-26T10:18:48.672Z,67.31
2017-06-26T10:19:59.688Z,68.83
2017-06-26T10:21:10.696Z,65.3
2017-06-26T10:22:21.708Z,68.7
2017-06-26T10:23:32.976Z,69.93
2017-06-26T10:24:43.977Z,67.73
2017-06-26T10:25:54.980Z,69.8
2017-06-26T10:27:05.996Z,67.96
2017-06-26T10:28:17.008Z,65.75
2017-06-26T10:29:28.069Z,65.95
2017-06-26T10:30:39.103Z,68.05
2017-06-26T10:31:50.117Z,66.08
2017-06-26T10:33:01.128Z,67.89
2017-06-26T10:34:12.342Z,67.08
2017-06-26T10:35:23.403Z,67.72
2017-06-26T10:36:34.408Z,69.37
2017-06-26T10:37:45.405Z,70.34
2017-06-26T10:38:56.404Z,68.95
2017-06-26T10:40:07.395Z,71.66
2017-06-26T10:41:18.656Z,70.7
2017-06-26T10:42:29.656Z,71.56
2017-06-26T10:43:40.661Z,74.38
2017-06-26T10:44:51.860Z,71.6
2017-06-26T10:46:02.884Z,68.15
2017-06-26T10:47:13.937Z,69.02
2017-06-26T10:48:25.340Z,68.24
2017-06-26T10:49:36.347Z,68.05
2017-06-26T10:50:47.355Z,65.01
2017-06-26T10:51:58.360Z,67.05
2017-06-26T10:53:09.421Z,64.14
2017-06-26T10:54:20.624Z,64.04
2017-06-26T10:55:31.633Z,64.47
2017-06-26T10:56:42.636Z,66.6
2017-06-26T10:57:53.631Z,67.27
2017-06-26T10:59:04.683Z,68.96
2017-06-26T11:00:15.684Z,66.95
2017-06-26T11:01:26.688Z,68.93
2017-06-26T11:02:37.693Z,65.47
2017-06-26T11:03:48.704Z,65.27
2017-06-26T11:04:59.759Z,65.95
2017-06-26T11:06:10.760Z,65.17
2017-06-26T11:07:21.761Z,66.89
2017-06-26T11:08:32.760Z,67.66
2017-06-26T11:09:43.756Z,66.95
2017-06-26T11:10:54.766Z,65.98
2017-06-26T11:12:05.770Z,64.33
2017-06-26T11:13:16.775Z,69.57
2017-06-26T11:14:27.779Z,66.05
2017-06-26T11:15:38.835Z,69.73
2017-06-26T11:16:49.838Z,68.47
2017-06-26T11:18:00.835Z,65.17
2017-06-26T11:19:11.841Z,67.99
2017-06-26T11:20:22.843Z,72.55
2017-06-26T11:21:33.888Z,66.27
2017-06-26T11:22:44.895Z,66.86
2017-06-26T11:23:55.905Z,65.3
2017-06-26T11:25:06.904Z,68.93
2017-06-26T11:26:18.111Z,64.17
2017-06-26T11:27:29.171Z,65.72
2017-06-26T11:28:40.173Z,66.89
2017-06-26T11:29:51.170Z,62.35
2017-06-26T11:31:02.373Z,62.84
2017-06-26T11:32:13.374Z,64.2
2017-06-26T11:33:24.457Z,65.75
2017-06-26T11:34:35.461Z,65.47
2017-06-26T11:35:46.463Z,64.26
2017-06-26T11:36:57.466Z,63.59
2017-06-26T11:38:08.467Z,63.95
2017-06-26T11:39:19.526Z,62.95
2017-06-26T11:40:30.526Z,64.2
2017-06-26T11:41:41.520Z,67.18
2017-06-26T11:42:52.521Z,66.6
2017-06-26T11:44:03.517Z,66.47
2017-06-26T11:45:14.571Z,64.04
2017-06-26T11:46:25.572Z,65.72
2017-06-26T11:47:36.579Z,69.99
2017-06-26T11:48:47.776Z,67.85
2017-06-26T11:49:58.781Z,68.05
2017-06-26T11:51:09.785Z,65.63
2017-06-26T11:52:20.782Z,67.89
2017-06-26T11:53:31.791Z,65.2
2017-06-26T11:54:42.806Z,65.59
2017-06-26T11:55:53.848Z,61.91
2017-06-26T11:57:04.842Z,67.76
2017-06-26T11:58:16.049Z,67.7
2017-06-26T11:59:27.254Z,65.92
2017-06-26T12:00:38.248Z,64.07
2017-06-26T12:01:49.299Z,65.11
2017-06-26T12:03:00.298Z,63.36
2017-06-26T12:04:11.296Z,65.89
2017-06-26T12:05:22.281Z,64.4
2017-06-26T12:06:33.494Z,68.02
2017-06-26T12:07:44.544Z,68.89
2017-06-26T12:08:55.553Z,71.8
2017-06-26T12:10:06.551Z,70.35
2017-06-26T12:11:17.555Z,69.67
2017-06-26T12:12:28.553Z,67.86
2017-06-26T12:13:39.604Z,68.63
2017-06-26T12:14:50.610Z,69.51
2017-06-26T12:16:01.813Z,67.5
2017-06-26T12:17:12.820Z,67.8
2017-06-26T12:18:23.814Z,65.2
2017-06-26T12:19:34.861Z,63.84
2017-06-26T12:20:46.068Z,63.78
2017-06-26T12:21:57.270Z,60.18
2017-06-26T12:23:08.276Z,65.33
2017-06-26T12:24:19.271Z,69.51
2017-06-26T12:25:30.326Z,66.21
2017-06-26T12:26:41.333Z,64.14
2017-06-26T12:27:52.331Z,65.27
2017-06-26T12:29:03.336Z,63.23
2017-06-26T12:30:14.338Z,67.21
2017-06-26T12:31:25.388Z,63.91
2017-06-26T12:32:36.393Z,61.74
2017-06-26T12:33:47.393Z,66.95
2017-06-26T12:34:58.401Z,63.82
2017-06-26T12:36:09.409Z,65.24
2017-06-26T12:37:20.459Z,69.99
2017-06-26T12:38:31.457Z,68.73
2017-06-26T12:39:42.451Z,68.82
2017-06-26T12:40:53.449Z,70.76
2017-06-26T12:42:04.460Z,68.96
2017-06-26T12:43:15.509Z,69.06
2017-06-26T12:44:26.509Z,66.27
2017-06-26T12:45:37.705Z,64.26
2017-06-26T12:46:48.714Z,65.53
2017-06-26T12:47:59.713Z,67.86
2017-06-26T12:49:10.715Z,66.02
2017-06-26T12:50:21.714Z,67.66
2017-06-26T12:51:32.715Z,66.05
2017-06-26T12:52:43.716Z,66.44
2017-06-26T12:53:54.716Z,66.05
2017-06-26T12:55:05.769Z,67.24
2017-06-26T12:56:16.971Z,69.67
2017-06-26T12:57:27.967Z,67.83
2017-06-26T12:58:38.973Z,69.42
2017-06-26T12:59:50.023Z,65.69
2017-06-26T13:01:01.022Z,65.3
2017-06-26T13:02:12.229Z,68.18
2017-06-26T13:03:23.236Z,61.68
2017-06-26T13:04:34.229Z,61.87
2017-06-26T13:05:45.497Z,62.07
2017-06-26T13:06:56.491Z,63.84
2017-06-26T13:08:07.490Z,64.33
2017-06-26T13:09:18.501Z,63.17
2017-06-26T13:10:29.508Z,64.04
2017-06-26T13:11:40.576Z,63.26
2017-06-26T13:12:51.577Z,60.47
2017-06-26T13:14:02.776Z,59.08
2017-06-26T13:15:13.781Z,58.11
2017-06-26T13:16:24.784Z,61.87
2017-06-26T13:17:36.038Z,59.9
2017-06-26T13:18:47.034Z,63.46
2017-06-26T13:19:58.440Z,60.52
2017-06-26T13:21:09.438Z,65.17
2017-06-26T13:22:20.439Z,63.72
2017-06-26T13:23:31.695Z,61.71
2017-06-26T13:24:42.710Z,63.46
2017-06-26T13:25:53.906Z,64.53
2017-06-26T13:27:04.906Z,63.36
2017-06-26T13:28:15.908Z,64.2
2017-06-26T13:29:27.158Z,63.62
2017-06-26T13:30:38.184Z,63.26
2017-06-26T13:31:49.385Z,63.04
2017-06-26T13:33:00.398Z,60.91
2017-06-26T13:34:11.397Z,63.33
2017-06-26T13:35:22.443Z,64.11
2017-06-26T13:36:33.644Z,68.66
2017-06-26T13:37:44.644Z,71.73
2017-06-26T13:38:55.646Z,67.99
2017-06-26T13:40:06.642Z,66.53
2017-06-26T13:41:17.688Z,61.88
2017-06-26T13:42:28.685Z,59.74
2017-06-26T13:43:39.682Z,60
2017-06-26T13:44:50.679Z,62.13
2017-06-26T13:46:01.675Z,63.2
2017-06-26T13:47:12.736Z,65.56
2017-06-26T13:48:23.946Z,67.69
2017-06-26T13:49:34.950Z,62.59
2017-06-26T13:50:46.157Z,70.06
2017-06-26T13:51:57.154Z,64.56
2017-06-26T13:53:08.408Z,63.29
2017-06-26T13:54:19.400Z,67.18
2017-06-26T13:55:30.405Z,61.77
2017-06-26T13:56:41.405Z,61.48
2017-06-26T13:57:52.610Z,61.68
2017-06-26T13:59:03.863Z,60.22
2017-06-26T14:00:14.856Z,66.72
2017-06-26T14:01:25.863Z,62.55
2017-06-26T14:02:36.868Z,58.89
2017-06-26T14:03:48.078Z,60.54
2017-06-26T14:04:59.125Z,60.31
2017-06-26T14:06:10.121Z,61.35
2017-06-26T14:07:21.322Z,60
2017-06-26T14:08:32.740Z,61.91
2017-06-26T14:09:43.747Z,65.2
2017-06-26T14:10:54.746Z,64.04
2017-06-26T14:12:05.741Z,64.5
2017-06-26T14:13:16.935Z,64.07
2017-06-26T14:14:27.933Z,66.6
2017-06-26T14:15:39.204Z,61.36
2017-06-26T14:16:50.208Z,60.39
2017-06-26T14:18:01.208Z,63.01
2017-06-26T14:19:12.209Z,62.82
2017-06-26T14:20:23.208Z,63.3
2017-06-26T14:21:34.204Z,63.78
2017-06-26T14:22:45.211Z,65.92
2017-06-26T14:23:56.205Z,63.3
2017-06-26T14:25:07.205Z,68.44
2017-06-26T14:26:18.260Z,64.07
2017-06-26T14:27:29.461Z,60.65
2017-06-26T14:28:40.461Z,62.01
2017-06-26T14:29:51.455Z,62.2
2017-06-26T14:31:02.652Z,63.95
2017-06-26T14:32:13.908Z,59.97
2017-06-26T14:33:24.901Z,61.33
2017-06-26T14:34:35.900Z,62.3
2017-06-26T14:35:46.904Z,59.88
2017-06-26T14:36:57.908Z,61.49
2017-06-26T14:38:08.949Z,62.95
2017-06-26T14:39:19.950Z,65.37
2017-06-26T14:40:30.941Z,64.85
2017-06-26T14:41:41.939Z,64.07
2017-06-26T14:42:52.936Z,64.56
2017-06-26T14:44:03.983Z,63.62
2017-06-26T14:45:14.989Z,66.92
2017-06-26T14:46:25.982Z,60.27
2017-06-26T14:47:37.181Z,59.78
2017-06-26T14:48:48.181Z,61.04
2017-06-26T14:49:59.220Z,59.81
2017-06-26T14:51:10.217Z,60.58
2017-06-26T14:52:21.210Z,60.88
2017-06-26T14:53:32.209Z,61.55
2017-06-26T14:54:43.228Z,63.88
2017-06-26T14:55:54.301Z,65.63
2017-06-26T14:57:05.297Z,69.44
2017-06-26T14:58:16.294Z,65.17
2017-06-26T14:59:27.291Z,64.72
2017-06-26T15:00:38.291Z,61.58
2017-06-26T15:01:49.545Z,60.61
2017-06-26T15:03:00.544Z,61.65
2017-06-26T15:04:11.538Z,61.46
2017-06-26T15:05:22.538Z,61.85
2017-06-26T15:06:33.532Z,61.17
2017-06-26T15:07:44.776Z,61.36
2017-06-26T15:08:55.967Z,61.85
2017-06-26T15:10:07.365Z,59.97
2017-06-26T15:11:18.357Z,58.33
2017-06-26T15:12:29.363Z,61.01
2017-06-26T15:13:40.410Z,58.88
2017-06-26T15:14:51.607Z,58.11
2017-06-26T15:16:02.605Z,62.95
2017-06-26T15:17:13.603Z,60.33